Time;durP1;ratioP1;P1;durP2;ratioP2;P2;SDS_P1;SDS_P2;PMS_P1;PMS_P2;Temp;Humidity;BMP_temperature;BMP_pressure;BME280_temperature;BME280_humidity;BME280_pressure;Samples;Min_cycle;Max_cycle;Signal;HPM_P1;HPM_P2
2022/05/20 00:01:06;;;;;;;1.70;0.93;;;20.50;1.00;;;;;;5116737;28;20736;-58
2022/05/20 00:03:35;;;;;;;2.20;1.10;;;20.40;1.00;;;;;;5116370;28;20445;-58
2022/05/20 00:06:02;;;;;;;1.27;0.90;;;20.40;1.00;;;;;;5116327;28;20441;-58
2022/05/20 00:08:29;;;;;;;2.23;1.00;;;20.40;1.00;;;;;;5116535;28;20526;-58
2022/05/20 00:10:58;;;;;;;1.10;0.80;;;20.30;1.00;;;;;;5115948;28;20907;-58
2022/05/20 00:13:26;;;;;;;1.97;0.90;;;20.30;1.00;;;;;;5116015;28;20509;-58
2022/05/20 00:15:54;;;;;;;2.30;0.97;;;20.30;1.00;;;;;;5115698;28;20935;-58
2022/05/20 00:18:21;;;;;;;3.10;1.00;;;20.20;1.00;;;;;;5115621;28;20444;-58
2022/05/20 00:20:48;;;;;;;1.47;0.90;;;20.20;1.00;;;;;;5114793;28;20461;-59
2022/05/20 00:23:15;;;;;;;1.40;0.80;;;20.20;1.00;;;;;;5114772;28;20472;-58
2022/05/20 00:25:49;;;;;;;2.20;1.00;;;20.20;1.00;;;;;;5116030;28;20452;-58
2022/05/20 00:28:20;;;;;;;1.30;1.10;;;20.20;1.00;;;;;;5116227;28;20506;-57
2022/05/20 00:30:49;;;;;;;2.00;1.00;;;20.20;1.00;;;;;;5116839;28;20456;-57
2022/05/20 00:33:16;;;;;;;1.97;1.00;;;20.10;1.00;;;;;;5115759;28;20449;-58
2022/05/20 00:35:45;;;;;;;1.33;1.00;;;20.10;1.00;;;;;;5116328;28;20480;-57
2022/05/20 00:38:13;;;;;;;1.77;0.90;;;20.00;9.10;;;;;;5116637;28;20529;-58
2022/05/20 00:40:41;;;;;;;1.60;0.90;;;19.90;7.30;;;;;;5117053;28;20495;-57
2022/05/20 00:43:27;;;;;;;1.33;0.90;;;19.90;13.70;;;;;;5116753;28;20503;-58
2022/05/20 00:45:57;;;;;;;2.13;1.17;;;19.90;19.90;;;;;;5115846;28;20463;-58
2022/05/20 00:48:33;;;;;;;1.83;0.97;;;20.00;26.50;;;;;;5114268;28;20891;-58
2022/05/20 00:51:06;;;;;;;1.70;0.97;;;19.90;22.70;;;;;;5116860;28;20444;-58
2022/05/20 00:53:38;;;;;;;4.23;1.10;;;19.90;24.80;;;;;;5116732;28;20491;-57
2022/05/20 00:56:07;;;;;;;1.37;0.97;;;19.90;31.20;;;;;;5116855;28;20566;-58
2022/05/20 00:58:34;;;;;;;2.30;1.07;;;19.80;28.30;;;;;;5117116;28;20440;-58
2022/05/20 01:01:04;;;;;;;1.60;1.10;;;19.80;31.00;;;;;;5117317;28;20444;-58
2022/05/20 01:03:32;;;;;;;2.70;0.93;;;19.70;26.10;;;;;;5117449;28;20464;-58
2022/05/20 01:06:00;;;;;;;3.63;1.00;;;19.70;20.60;;;;;;5116645;28;20942;-58
2022/05/20 01:08:30;;;;;;;1.30;0.90;;;19.70;17.50;;;;;;5115978;28;20441;-58
2022/05/20 01:10:57;;;;;;;2.20;1.30;;;19.80;19.20;;;;;;5116775;28;20460;-59
2022/05/20 01:13:26;;;;;;;1.07;0.87;;;19.80;14.80;;;;;;5116977;28;20453;-60
2022/05/20 01:16:11;;;;;;;1.70;1.43;;;19.80;19.90;;;;;;5115793;28;20492;-60
2022/05/20 01:18:45;;;;;;;1.73;1.10;;;19.80;22.80;;;;;;5116111;28;20444;-58
2022/05/20 01:21:13;;;;;;;1.60;1.03;;;19.80;21.30;;;;;;5116413;28;20444;-56
2022/05/20 01:23:42;;;;;;;1.57;1.10;;;19.80;19.30;;;;;;5116022;28;20479;-59
2022/05/20 01:26:09;;;;;;;3.30;0.97;;;19.80;7.10;;;;;;5116965;28;20502;-58
2022/05/20 01:28:36;;;;;;;1.40;0.97;;;19.80;10.70;;;;;;5115613;28;20448;-57
2022/05/20 01:31:05;;;;;;;1.30;1.00;;;19.80;10.90;;;;;;5115716;28;20454;-58
2022/05/20 01:33:35;;;;;;;1.70;1.00;;;19.80;19.60;;;;;;5115724;28;20448;-59
2022/05/20 01:36:05;;;;;;;2.13;1.00;;;19.80;7.30;;;;;;5115403;28;20484;-59
2022/05/20 01:38:32;;;;;;;1.30;0.97;;;19.80;14.20;;;;;;5115408;28;20448;-58
2022/05/20 01:41:05;;;;;;;7.07;1.00;;;19.80;12.50;;;;;;5116164;28;20510;-59
2022/05/20 01:43:49;;;;;;;1.40;1.10;;;19.80;13.30;;;;;;5115802;28;20444;-59
2022/05/20 01:46:28;;;;;;;1.13;0.90;;;19.80;5.40;;;;;;5116668;28;20502;-58
2022/05/20 01:49:04;;;;;;;1.23;0.90;;;19.90;12.10;;;;;;5116268;28;20476;-59
2022/05/20 01:51:43;;;;;;;2.13;1.00;;;19.90;1.00;;;;;;5116882;28;20506;-58
2022/05/20 01:54:18;;;;;;;2.53;1.37;;;19.90;1.00;;;;;;5116129;28;20513;-59
2022/05/20 01:56:51;;;;;;;1.40;1.10;;;19.80;9.50;;;;;;5115879;28;20472;-59
2022/05/20 01:59:25;;;;;;;1.90;1.00;;;19.80;2.30;;;;;;5115895;28;20834;-59
2022/05/20 02:01:58;;;;;;;1.30;1.00;;;19.80;1.00;;;;;;5116014;28;20452;-58
2022/05/20 02:04:31;;;;;;;1.80;1.03;;;19.80;1.00;;;;;;5116310;28;20452;-59
2022/05/20 02:07:03;;;;;;;2.07;1.30;;;19.80;1.00;;;;;;5116296;28;20490;-58
2022/05/20 02:09:34;;;;;;;2.20;1.07;;;19.80;1.00;;;;;;5116532;28;20457;-59
2022/05/20 02:12:04;;;;;;;1.30;0.90;;;19.80;1.00;;;;;;5116134;28;20793;-58
2022/05/20 02:14:41;;;;;;;1.30;1.03;;;19.90;1.00;;;;;;5116014;28;20895;-58
2022/05/20 02:17:20;;;;;;;3.50;1.00;;;19.90;1.00;;;;;;5116097;28;20537;-59
2022/05/20 02:20:04;;;;;;;1.50;1.20;;;19.90;1.00;;;;;;5114949;28;20452;-59
2022/05/20 02:22:37;;;;;;;1.40;1.10;;;19.90;1.00;;;;;;5115979;28;20451;-59
2022/05/20 02:25:07;;;;;;;1.17;1.00;;;19.90;1.00;;;;;;5115707;27;20529;-58
2022/05/20 02:27:41;;;;;;;2.30;0.90;;;19.90;1.00;;;;;;5114573;28;20448;-58
2022/05/20 02:30:12;;;;;;;1.80;1.00;;;20.00;1.00;;;;;;5115622;28;20868;-58
2022/05/20 02:32:45;;;;;;;1.63;1.00;;;19.90;1.00;;;;;;5115997;28;20441;-59
2022/05/20 02:35:12;;;;;;;1.50;1.00;;;19.90;1.00;;;;;;5116244;28;20452;-59
2022/05/20 02:37:40;;;;;;;1.83;1.10;;;20.00;1.00;;;;;;5116182;28;20498;-59
2022/05/20 02:40:21;;;;;;;2.90;1.00;;;19.90;1.00;;;;;;5115498;28;20453;-58
2022/05/20 02:42:49;;;;;;;1.70;1.00;;;19.90;1.00;;;;;;5115858;28;20455;-59
2022/05/20 02:45:18;;;;;;;3.17;1.20;;;19.90;1.20;;;;;;5116137;28;20452;-59
2022/05/20 02:47:45;;;;;;;1.40;1.00;;;19.80;4.10;;;;;;5115972;28;20732;-58
2022/05/20 02:50:13;;;;;;;3.40;1.10;;;19.80;10.40;;;;;;5115415;28;20505;-58
2022/05/20 02:52:40;;;;;;;3.23;1.33;;;19.70;11.90;;;;;;5117350;28;20831;-59
2022/05/20 02:55:17;;;;;;;1.80;1.07;;;19.70;16.80;;;;;;5119150;28;20457;-58
2022/05/20 02:57:45;;;;;;;3.90;1.20;;;19.60;18.10;;;;;;5119588;28;20460;-58
2022/05/20 03:05:45;;;;;;;2.10;1.10;;;19.60;22.10;;;;;;5116055;28;20432;-59
2022/05/20 03:08:12;;;;;;;1.63;1.10;;;19.60;20.60;;;;;;5116568;28;20535;-60
2022/05/20 03:10:39;;;;;;;1.50;1.10;;;19.60;18.60;;;;;;5116908;28;20502;-58
2022/05/20 03:13:08;;;;;;;5.37;1.07;;;19.70;19.30;;;;;;5116797;28;20876;-59
2022/05/20 03:15:39;;;;;;;1.53;1.10;;;19.70;5.20;;;;;;5119084;28;20481;-59
2022/05/20 03:18:07;;;;;;;3.20;1.20;;;19.70;3.00;;;;;;5119018;28;20929;-59
2022/05/20 03:20:38;;;;;;;1.30;1.10;;;19.80;1.00;;;;;;5118453;28;20461;-59
2022/05/20 03:23:06;;;;;;;1.70;1.00;;;19.90;1.00;;;;;;5118464;28;20484;-59
2022/05/20 03:25:33;;;;;;;3.07;1.20;;;19.90;1.00;;;;;;5119442;28;20444;-59
2022/05/20 03:28:01;;;;;;;2.10;1.30;;;19.90;1.00;;;;;;5118671;28;20440;-58
2022/05/20 03:30:28;;;;;;;1.87;1.20;;;19.90;1.00;;;;;;5118952;28;20456;-59
2022/05/20 03:32:56;;;;;;;1.60;1.03;;;19.90;1.00;;;;;;5119135;28;20448;-59
2022/05/20 03:35:24;;;;;;;1.53;1.00;;;20.00;1.00;;;;;;5118749;28;20456;-60
2022/05/20 03:37:51;;;;;;;1.30;1.17;;;20.00;1.00;;;;;;5118394;28;20479;-59
2022/05/20 03:40:18;;;;;;;1.20;1.00;;;20.00;1.00;;;;;;5118231;28;20737;-57
2022/05/20 03:42:45;;;;;;;1.33;1.13;;;20.00;1.00;;;;;;5118749;28;20448;-58
2022/05/20 03:45:12;;;;;;;1.90;1.10;;;20.00;1.00;;;;;;5118415;28;20521;-58
2022/05/20 03:47:39;;;;;;;1.30;1.00;;;20.00;1.00;;;;;;5118516;28;20432;-58
2022/05/20 03:50:09;;;;;;;1.47;1.00;;;20.00;1.00;;;;;;5118412;28;20514;-58
2022/05/20 03:52:36;;;;;;;2.07;1.07;;;20.00;1.00;;;;;;5118181;28;20441;-58
2022/05/20 03:55:03;;;;;;;1.77;1.10;;;20.00;1.00;;;;;;5118389;28;20452;-58
2022/05/20 03:57:30;;;;;;;1.27;0.90;;;20.00;1.00;;;;;;5118253;28;20520;-58
2022/05/20 04:00:06;;;;;;;2.30;1.00;;;20.00;1.00;;;;;;5118380;28;20908;-58
2022/05/20 04:02:32;;;;;;;1.30;1.00;;;20.00;1.00;;;;;;5117417;28;20891;-58
2022/05/20 04:05:00;;;;;;;2.27;1.10;;;20.00;1.00;;;;;;5117129;28;20502;-59
2022/05/20 04:07:28;;;;;;;1.13;1.00;;;20.00;1.00;;;;;;5117441;28;20854;-58
2022/05/20 04:09:55;;;;;;;2.10;1.10;;;20.10;1.00;;;;;;5117147;28;20456;-59
2022/05/20 04:12:27;;;;;;;2.00;1.10;;;20.10;1.00;;;;;;5116573;28;20498;-59
2022/05/20 04:15:01;;;;;;;1.50;0.87;;;20.10;1.00;;;;;;5115013;28;20471;-59
2022/05/20 04:17:29;;;;;;;1.43;0.90;;;20.10;1.00;;;;;;5115899;28;20475;-59
2022/05/20 04:19:56;;;;;;;1.77;0.90;;;20.10;1.00;;;;;;5116417;28;20448;-59
2022/05/20 04:22:27;;;;;;;1.30;1.10;;;20.10;1.00;;;;;;5116161;28;20445;-59
2022/05/20 04:24:56;;;;;;;1.73;0.87;;;20.10;1.00;;;;;;5116913;28;20473;-58
2022/05/20 04:27:23;;;;;;;1.87;1.00;;;20.10;1.00;;;;;;5117917;28;20795;-58
2022/05/20 04:29:51;;;;;;;1.10;0.90;;;20.10;1.00;;;;;;5115927;28;20505;-59
2022/05/20 04:32:18;;;;;;;1.30;1.00;;;20.10;1.00;;;;;;5117901;28;20502;-60
2022/05/20 04:34:45;;;;;;;1.50;1.00;;;20.10;1.00;;;;;;5117438;28;20926;-60
2022/05/20 04:37:12;;;;;;;1.03;0.93;;;20.10;1.00;;;;;;5117157;28;20529;-60
2022/05/20 04:39:39;;;;;;;1.20;0.90;;;20.10;1.00;;;;;;5117034;28;20506;-57
2022/05/20 04:47:45;;;;;;;1.20;0.80;;;20.00;1.00;;;;;;5116651;28;20504;-60
2022/05/20 04:50:12;;;;;;;1.27;1.07;;;20.10;1.00;;;;;;5116602;28;20456;-60
2022/05/20 04:52:39;;;;;;;3.37;0.93;;;20.10;1.00;;;;;;5116526;28;20518;-58
2022/05/20 04:55:06;;;;;;;1.30;0.90;;;20.10;1.00;;;;;;5116576;28;20464;-60
2022/05/20 04:57:41;;;;;;;4.03;1.07;;;20.10;1.00;;;;;;5117241;28;20568;-58
2022/05/20 05:00:11;;;;;;;2.50;0.90;;;20.10;1.00;;;;;;5116344;28;20448;-63
2022/05/20 05:02:39;;;;;;;1.30;0.83;;;20.20;1.00;;;;;;5116580;28;20785;-63
2022/05/20 05:05:08;;;;;;;1.40;0.90;;;20.20;1.00;;;;;;5116458;28;20452;-63
2022/05/20 05:07:38;;;;;;;2.13;0.93;;;20.20;1.00;;;;;;5116039;28;20502;-63
2022/05/20 05:10:05;;;;;;;1.00;0.80;;;20.30;1.00;;;;;;5115738;28;20510;-63
2022/05/20 05:12:34;;;;;;;1.00;0.90;;;20.30;1.00;;;;;;5116776;28;20506;-63
2022/05/20 05:15:01;;;;;;;3.50;0.93;;;20.30;1.00;;;;;;5115468;28;20884;-63
2022/05/20 05:20:22;;;;;;;2.80;0.80;;;20.30;1.00;;;;;;5115222;28;20443;-63
2022/05/20 05:22:50;;;;;;;1.10;0.80;;;20.40;1.00;;;;;;5115419;27;20444;-64
2022/05/20 05:25:19;;;;;;;1.20;0.90;;;20.40;1.00;;;;;;5114723;28;20456;-62
2022/05/20 05:27:48;;;;;;;1.10;0.93;;;20.50;1.00;;;;;;5114240;28;20491;-62
2022/05/20 05:30:15;;;;;;;1.17;1.00;;;20.50;99.90;;;;;;5114736;28;20541;-64
2022/05/20 05:32:43;;;;;;;1.27;1.00;;;20.70;1.00;;;;;;5113524;28;20490;-64
2022/05/20 05:35:14;;;;;;;1.10;1.00;;;20.70;99.90;;;;;;5115083;28;20449;-63
2022/05/20 05:37:44;;;;;;;1.30;0.90;;;20.80;99.90;;;;;;5115783;28;20507;-64
2022/05/20 05:40:14;;;;;;;1.67;0.93;;;20.80;99.90;;;;;;5114905;28;20437;-64
2022/05/20 05:42:42;;;;;;;2.50;1.00;;;20.90;99.90;;;;;;5113872;28;20449;-64
2022/05/20 05:45:12;;;;;;;1.27;1.00;;;20.90;99.90;;;;;;5114686;28;20535;-64
2022/05/20 05:47:39;;;;;;;1.33;0.97;;;20.90;47.80;;;;;;5113521;28;20900;-61
2022/05/20 05:50:07;;;;;;;1.17;1.00;;;21.00;99.90;;;;;;5110577;28;20510;-63
2022/05/20 05:52:34;;;;;;;1.70;1.00;;;21.10;59.40;;;;;;5114051;28;20457;-63
2022/05/20 05:55:02;;;;;;;1.00;0.80;;;21.10;1.00;;;;;;5110561;28;20513;-64
2022/05/20 05:57:30;;;;;;;1.20;0.90;;;21.10;1.00;;;;;;5111185;28;20572;-64
2022/05/20 05:59:57;;;;;;;2.07;1.00;;;21.20;1.00;;;;;;5112146;28;20452;-65
2022/05/20 06:02:34;;;;;;;2.23;0.80;;;21.20;99.90;;;;;;5110732;28;21303;-65
2022/05/20 06:05:01;;;;;;;1.50;1.20;;;21.30;27.60;;;;;;5100169;28;20440;-64
2022/05/20 06:07:28;;;;;;;1.27;0.90;;;21.30;1.00;;;;;;5110392;28;20451;-64
2022/05/20 06:09:55;;;;;;;2.83;1.10;;;21.40;1.00;;;;;;5113937;28;20525;-65
2022/05/20 06:12:22;;;;;;;2.33;0.90;;;21.50;1.00;;;;;;5114491;28;20444;-66
2022/05/20 06:14:49;;;;;;;1.20;0.97;;;21.60;99.90;;;;;;5115035;28;20502;-65
2022/05/20 06:17:34;;;;;;;1.20;0.90;;;21.70;99.90;;;;;;5114675;28;20548;-65
2022/05/20 06:20:25;;;;;;;1.37;0.90;;;21.80;1.00;;;;;;5113699;28;20502;-66
2022/05/20 06:22:52;;;;;;;2.93;0.90;;;21.90;1.00;;;;;;5111018;28;20876;-62
2022/05/20 06:25:20;;;;;;;2.20;0.83;;;22.10;1.00;;;;;;5115099;28;20445;-61
2022/05/20 06:27:47;;;;;;;1.20;0.83;;;22.20;1.00;;;;;;5109821;28;20780;-61
2022/05/20 06:30:16;;;;;;;3.10;0.80;;;22.30;1.00;;;;;;5107062;28;20441;-61
2022/05/20 06:32:43;;;;;;;1.30;1.00;;;22.40;99.90;;;;;;5110272;28;20570;-63
2022/05/20 06:40:55;;;;;;;1.33;0.90;;;22.60;99.90;;;;;;5102938;28;20494;-58
2022/05/20 06:43:23;;;;;;;1.00;0.70;;;22.70;13.50;;;;;;5101154;28;20452;-63
2022/05/20 06:45:53;;;;;;;1.27;0.80;;;22.90;1.00;;;;;;5102720;28;20937;-63
2022/05/20 06:48:20;;;;;;;2.80;0.90;;;23.00;1.00;;;;;;5106435;28;20768;-63
2022/05/20 06:50:48;;;;;;;3.53;0.80;;;23.10;1.00;;;;;;5110547;28;20876;-65
2022/05/20 06:53:40;;;;;;;2.50;0.80;;;23.20;1.00;;;;;;5100395;28;20468;-64
2022/05/20 06:56:07;;;;;;;1.17;0.87;;;23.40;1.00;;;;;;5109016;28;20437;-64
2022/05/20 06:58:34;;;;;;;1.03;0.80;;;23.50;1.00;;;;;;5109320;28;20488;-64
2022/05/20 07:01:03;;;;;;;1.20;0.83;;;23.60;99.90;;;;;;5112875;28;20920;-61
2022/05/20 07:03:30;;;;;;;1.67;0.90;;;23.70;99.90;;;;;;5115000;28;20463;-65
2022/05/20 07:05:58;;;;;;;1.63;0.80;;;23.80;99.90;;;;;;5108827;28;20507;-64
2022/05/20 07:08:25;;;;;;;1.00;0.80;;;23.90;99.90;;;;;;5104678;28;20511;-64
2022/05/20 07:10:52;;;;;;;2.03;0.80;;;24.00;99.90;;;;;;5100927;28;20935;-61
2022/05/20 07:13:19;;;;;;;1.53;0.90;;;24.00;99.90;;;;;;5113220;28;20483;-63
2022/05/20 07:15:46;;;;;;;1.13;0.80;;;24.10;99.90;;;;;;5101961;28;20445;-64
2022/05/20 07:18:13;;;;;;;2.77;0.70;;;24.10;99.90;;;;;;5106822;28;20481;-64
2022/05/20 07:20:42;;;;;;;1.17;0.90;;;24.10;99.90;;;;;;5110615;28;20494;-64
2022/05/20 07:23:10;;;;;;;1.20;0.90;;;24.20;99.90;;;;;;5109420;28;20484;-63
2022/05/20 07:25:37;;;;;;;2.23;0.83;;;24.30;99.90;;;;;;5128721;27;20517;-62
2022/05/20 07:28:05;;;;;;;1.10;0.90;;;24.40;99.90;;;;;;5124517;27;20448;-63
2022/05/20 07:30:33;;;;;;;4.23;0.97;;;24.40;99.90;;;;;;5128564;27;20439;-63
2022/05/20 07:33:00;;;;;;;0.90;0.80;;;24.50;99.90;;;;;;5136914;27;20448;-62
2022/05/20 07:35:31;;;;;;;1.00;0.80;;;24.60;66.30;;;;;;5136808;27;20844;-64
2022/05/20 07:37:58;;;;;;;1.50;0.90;;;24.70;49.40;;;;;;5136565;27;20479;-63
2022/05/20 07:40:26;;;;;;;1.90;1.07;;;24.80;14.20;;;;;;5135925;27;20443;-64
2022/05/20 07:42:54;;;;;;;2.60;1.27;;;24.80;1.00;;;;;;5132791;27;20459;-64
2022/05/20 07:45:21;;;;;;;1.30;0.93;;;24.90;1.00;;;;;;5135947;27;20513;-63
2022/05/20 07:47:55;;;;;;;1.77;1.00;;;25.00;1.00;;;;;;5137236;27;20448;-64
2022/05/20 07:50:22;;;;;;;1.57;1.00;;;25.00;1.00;;;;;;5136620;27;20891;-64
2022/05/20 07:55:42;;;;;;;1.50;0.83;;;25.20;1.00;;;;;;5122711;27;20408;-68
2022/05/20 07:58:15;;;;;;;1.30;1.10;;;25.30;1.00;;;;;;5125128;27;20483;-64
2022/05/20 08:00:42;;;;;;;1.13;0.80;;;25.30;1.00;;;;;;5136516;27;20443;-63
2022/05/20 08:03:13;;;;;;;1.37;0.90;;;25.40;1.00;;;;;;5135407;27;20451;-65
2022/05/20 08:05:39;;;;;;;1.63;1.00;;;25.40;1.00;;;;;;5133717;27;20463;-63
2022/05/20 08:08:08;;;;;;;1.07;0.80;;;25.50;1.00;;;;;;5133985;27;20444;-65
2022/05/20 08:10:38;;;;;;;1.40;0.90;;;25.50;1.00;;;;;;5133366;27;20449;-64
2022/05/20 08:13:07;;;;;;;1.30;1.00;;;25.50;1.00;;;;;;5133613;27;20439;-63
2022/05/20 08:15:36;;;;;;;1.97;1.10;;;25.80;1.00;;;;;;5118696;27;20505;-64
2022/05/20 08:18:03;;;;;;;1.00;0.90;;;25.90;1.00;;;;;;5125323;27;20475;-64
2022/05/20 08:20:30;;;;;;;1.40;0.80;;;25.90;1.00;;;;;;5130370;27;20444;-63
2022/05/20 08:22:57;;;;;;;1.23;0.90;;;26.00;1.00;;;;;;5135731;27;21067;-63
2022/05/20 08:25:26;;;;;;;1.30;1.20;;;26.00;1.00;;;;;;5116684;27;20441;-64
2022/05/20 08:27:54;;;;;;;2.10;0.90;;;26.00;1.00;;;;;;5127695;27;20483;-63
2022/05/20 08:30:24;;;;;;;1.20;1.03;;;26.10;1.00;;;;;;5121567;27;20501;-66
2022/05/20 08:32:55;;;;;;;1.30;0.80;;;26.20;1.00;;;;;;5119939;27;20452;-65
2022/05/20 08:35:23;;;;;;;1.43;0.90;;;26.40;1.00;;;;;;5132906;27;20440;-62
2022/05/20 08:37:51;;;;;;;1.03;0.90;;;26.50;1.00;;;;;;5122918;27;20538;-63
2022/05/20 08:40:22;;;;;;;1.60;0.90;;;26.40;1.00;;;;;;5130928;27;20448;-64
2022/05/20 08:42:51;;;;;;;1.47;1.00;;;26.50;1.00;;;;;;5134980;27;20448;-63
2022/05/20 08:45:23;;;;;;;1.40;0.90;;;26.50;1.00;;;;;;5135476;27;20503;-62
2022/05/20 08:47:52;;;;;;;0.97;0.87;;;26.60;1.00;;;;;;5135298;27;20432;-66
2022/05/20 08:50:21;;;;;;;1.50;0.90;;;26.60;1.00;;;;;;5133368;27;20513;-63
2022/05/20 08:52:52;;;;;;;2.10;0.90;;;26.70;1.00;;;;;;5134678;27;20448;-65
2022/05/20 08:55:19;;;;;;;1.10;0.90;;;26.80;1.00;;;;;;5135202;27;20790;-65
2022/05/20 08:57:51;;;;;;;2.13;0.90;;;27.00;1.00;;;;;;5135568;27;20476;-64
2022/05/20 09:00:20;;;;;;;1.13;0.83;;;27.10;1.00;;;;;;5133692;27;20508;-67
2022/05/20 09:02:50;;;;;;;1.57;1.10;;;27.20;1.00;;;;;;5134006;27;20501;-65
2022/05/20 09:05:36;;;;;;;1.57;1.10;;;27.40;1.00;;;;;;5134797;27;20447;-66
2022/05/20 09:08:06;;;;;;;5.00;1.40;;;27.50;1.00;;;;;;5132456;27;20448;-66
2022/05/20 09:10:37;;;;;;;1.20;1.00;;;27.70;1.00;;;;;;5133361;27;20444;-64
2022/05/20 09:13:12;;;;;;;2.10;0.80;;;27.60;1.00;;;;;;5129524;27;20452;-65
2022/05/20 09:15:46;;;;;;;5.00;4.50;;;27.70;1.00;;;;;;5131884;27;20886;-65
2022/05/20 09:18:20;;;;;;;2.27;1.67;;;27.90;1.00;;;;;;5129415;27;20528;-67
2022/05/20 09:20:50;;;;;;;3.00;1.33;;;28.00;1.00;;;;;;5131629;27;20781;-67
2022/05/20 09:23:20;;;;;;;2.23;1.40;;;28.00;1.00;;;;;;5132988;27;20528;-67
2022/05/20 09:25:56;;;;;;;2.00;1.17;;;27.90;1.00;;;;;;5133282;27;20521;-67
2022/05/20 09:28:31;;;;;;;1.10;0.90;;;28.10;1.00;;;;;;5129822;27;20508;-70
2022/05/20 09:31:07;;;;;;;4.80;1.00;;;28.10;1.00;;;;;;5133452;27;20447;-69
2022/05/20 09:33:39;;;;;;;1.93;0.90;;;28.10;1.00;;;;;;5121560;27;20476;-70
2022/05/20 09:36:06;;;;;;;1.77;1.00;;;28.10;1.00;;;;;;5125008;27;20539;-68
2022/05/20 09:38:37;;;;;;;3.27;1.17;;;28.00;1.00;;;;;;5125381;27;20986;-68
2022/05/20 09:41:12;;;;;;;1.10;0.90;;;28.20;1.00;;;;;;5126415;28;20557;-67
2022/05/20 09:43:41;;;;;;;1.50;1.00;;;28.30;1.00;;;;;;5134192;27;20935;-67
2022/05/20 09:46:32;;;;;;;1.17;0.90;;;28.40;1.00;;;;;;5126809;27;21162;-68
2022/05/20 09:49:17;;;;;;;1.07;0.93;;;28.50;1.00;;;;;;5117023;27;20458;-57
2022/05/20 09:51:50;;;;;;;1.37;0.90;;;28.50;1.00;;;;;;5127597;27;20761;-56
2022/05/20 09:54:22;;;;;;;1.43;1.03;;;28.60;1.00;;;;;;5132399;27;20464;-57
2022/05/20 09:56:59;;;;;;;1.00;0.80;;;28.80;1.00;;;;;;5133802;27;20733;-57
2022/05/20 09:59:37;;;;;;;2.30;2.03;;;28.90;1.00;;;;;;5131178;27;21089;-57
2022/05/20 10:02:09;;;;;;;1.10;1.00;;;29.10;1.00;;;;;;5115050;28;20501;-58
2022/05/20 10:04:45;;;;;;;4.23;1.07;;;29.40;1.00;;;;;;5134004;27;20487;-57
2022/05/20 10:07:18;;;;;;;2.33;1.17;;;29.70;1.00;;;;;;5136883;27;20435;-57
2022/05/20 10:09:52;;;;;;;1.30;1.00;;;29.90;1.00;;;;;;5139074;27;20976;-57
2022/05/20 10:12:30;;;;;;;1.87;0.97;;;30.10;1.00;;;;;;5137216;27;20760;-57
2022/05/20 10:15:07;;;;;;;1.37;0.90;;;30.20;1.00;;;;;;5137928;27;20443;-58
2022/05/20 10:17:48;;;;;;;3.90;1.00;;;30.20;1.00;;;;;;5123178;27;20843;-58
2022/05/20 10:20:33;;;;;;;1.03;0.87;;;30.10;1.00;;;;;;5134915;27;20531;-56
2022/05/20 10:23:07;;;;;;;2.30;1.30;;;30.20;1.00;;;;;;5135193;27;20467;-58
2022/05/20 10:25:40;;;;;;;2.50;0.80;;;30.60;1.00;;;;;;5127237;27;20527;-57
2022/05/20 10:34:07;;;;;;;1.33;0.97;;;31.20;1.00;;;;;;5111887;28;20439;-57
2022/05/20 10:36:56;;;;;;;1.10;0.90;;;30.90;1.00;;;;;;5098909;28;20442;-57
2022/05/20 10:39:41;;;;;;;1.77;0.87;;;31.20;1.00;;;;;;5104883;28;20477;-56
2022/05/20 10:42:28;;;;;;;1.30;0.97;;;31.30;1.00;;;;;;5128865;27;20488;-56
2022/05/20 10:50:55;;;;;;;1.83;0.70;;;32.20;1.00;;;;;;5114595;27;20962;-57
2022/05/20 10:53:35;;;;;;;3.00;0.90;;;32.10;1.00;;;;;;5127333;27;20468;-57
2022/05/20 10:56:26;;;;;;;1.80;0.97;;;32.40;1.00;;;;;;5101906;28;20459;-57
2022/05/20 10:59:06;;;;;;;1.47;0.90;;;33.00;1.00;;;;;;5108339;27;21167;-57
2022/05/20 11:01:45;;;;;;;2.10;0.90;;;33.30;1.00;;;;;;5125075;27;20490;-57
2022/05/20 11:04:28;;;;;;;2.23;0.73;;;33.20;1.00;;;;;;5114601;28;20456;-55
2022/05/20 11:07:26;;;;;;;3.33;1.50;;;33.40;1.00;;;;;;5102626;28;20496;-57
2022/05/20 11:10:06;;;;;;;1.80;0.70;;;33.30;1.00;;;;;;5129750;27;20538;-57
2022/05/20 11:12:44;;;;;;;1.33;0.80;;;33.30;1.00;;;;;;5136126;27;20489;-58
2022/05/20 11:15:28;;;;;;;1.10;0.80;;;33.30;1.00;;;;;;5116857;27;20747;-57
2022/05/20 11:18:31;;;;;;;1.53;0.80;;;33.60;1.00;;;;;;5117857;27;20484;-57
2022/05/20 11:21:20;;;;;;;0.87;0.70;;;33.70;1.00;;;;;;5123078;27;20757;-57
2022/05/20 11:24:16;;;;;;;2.23;0.80;;;33.50;1.00;;;;;;5102470;28;20526;-55
2022/05/20 11:27:27;;;;;;;3.20;0.80;;;33.60;1.00;;;;;;5103038;28;20508;-57
2022/05/20 11:30:23;;;;;;;6.13;0.90;;;33.60;1.00;;;;;;5069388;28;20461;-56
2022/05/20 11:33:16;;;;;;;0.73;0.70;;;33.60;1.00;;;;;;5101977;28;20449;-55
2022/05/20 11:39:17;;;;;;;0.93;0.77;;;33.20;1.00;;;;;;5109772;28;20491;-58
2022/05/20 11:41:51;;;;;;;1.10;0.70;;;33.40;1.00;;;;;;5105221;28;20507;-58
2022/05/20 11:44:40;;;;;;;0.93;0.70;;;33.30;1.00;;;;;;5110462;27;20495;-57
2022/05/20 11:47:30;;;;;;;2.03;0.83;;;33.50;1.00;;;;;;5105017;28;20877;-56
2022/05/20 11:50:17;;;;;;;2.17;0.90;;;33.60;1.00;;;;;;5096182;28;20446;-57
2022/05/20 11:52:53;;;;;;;4.40;0.83;;;34.20;1.00;;;;;;5107690;28;20918;-57
2022/05/20 11:55:22;;;;;;;1.00;0.80;;;33.70;1.00;;;;;;5108360;28;20445;-58
2022/05/20 11:58:02;;;;;;;6.60;0.70;;;33.60;1.00;;;;;;5115825;28;20453;-57
2022/05/20 12:00:48;;;;;;;0.87;0.70;;;33.50;1.00;;;;;;5114119;28;20474;-58
2022/05/20 12:03:19;;;;;;;4.30;0.80;;;33.90;1.00;;;;;;5109732;28;20548;-57
2022/05/20 12:05:50;;;;;;;2.60;0.80;;;33.50;1.00;;;;;;5116827;28;20891;-58
2022/05/20 12:08:52;;;;;;;2.50;0.80;;;33.40;1.00;;;;;;5115188;28;20440;-58
2022/05/20 12:11:24;;;;;;;2.07;0.90;;;33.70;1.00;;;;;;5114789;28;20452;-58
2022/05/20 12:14:07;;;;;;;1.40;0.80;;;33.80;1.00;;;;;;5112685;28;20888;-58
2022/05/20 12:16:53;;;;;;;4.60;0.80;;;33.60;1.00;;;;;;5113262;28;20476;-58
2022/05/20 12:25:34;;;;;;;1.63;0.77;;;33.20;1.00;;;;;;5135246;27;20489;-60
2022/05/20 12:28:06;;;;;;;1.23;0.77;;;33.40;1.00;;;;;;5135881;27;20440;-58
2022/05/20 12:30:40;;;;;;;1.63;1.53;;;33.60;1.00;;;;;;5098989;27;20469;-60
2022/05/20 12:33:22;;;;;;;1.23;0.80;;;33.80;1.00;;;;;;5095447;28;20441;-58
2022/05/20 12:36:22;;;;;;;1.00;0.80;;;34.10;1.00;;;;;;5093187;28;20778;-58
2022/05/20 12:38:50;;;;;;;2.17;0.80;;;34.10;1.00;;;;;;5094316;28;20928;-56
2022/05/20 12:41:37;;;;;;;1.07;0.80;;;34.20;1.00;;;;;;5094430;28;20480;-58
2022/05/20 12:44:32;;;;;;;1.00;0.70;;;34.10;1.00;;;;;;5095455;28;20509;-58
2022/05/20 12:47:20;;;;;;;1.67;1.10;;;34.10;1.00;;;;;;5096652;28;20497;-58
2022/05/20 12:49:59;;;;;;;0.80;0.60;;;34.20;1.00;;;;;;5099409;27;20446;-57
2022/05/20 12:52:31;;;;;;;1.83;0.70;;;34.00;1.00;;;;;;5093939;28;20433;-56
2022/05/20 12:55:01;;;;;;;1.87;0.67;;;34.20;1.00;;;;;;5093654;28;20453;-57
2022/05/20 12:57:30;;;;;;;0.93;0.70;;;34.20;1.00;;;;;;5092699;28;20483;-54
2022/05/20 13:00:01;;;;;;;2.10;0.80;;;34.10;1.00;;;;;;5093089;28;20538;-55
2022/05/20 13:02:33;;;;;;;1.63;0.73;;;34.20;1.00;;;;;;5105398;28;20452;-57
2022/05/20 13:05:05;;;;;;;0.80;0.60;;;34.40;1.00;;;;;;5114341;28;20452;-54
2022/05/20 13:07:39;;;;;;;1.30;1.20;;;34.50;1.00;;;;;;5093404;28;20465;-55
2022/05/20 13:10:24;;;;;;;1.80;0.77;;;34.40;1.00;;;;;;5091668;28;20515;-56
2022/05/20 13:12:52;;;;;;;2.00;0.70;;;34.50;1.00;;;;;;5091677;28;20970;-55
2022/05/20 13:15:20;;;;;;;1.93;0.60;;;34.70;1.00;;;;;;5091896;28;20465;-57
2022/05/20 13:17:57;;;;;;;1.20;0.60;;;34.40;1.00;;;;;;5107891;28;20455;-57
2022/05/20 13:20:25;;;;;;;2.63;0.70;;;34.50;1.00;;;;;;5112182;28;20484;-57
2022/05/20 13:22:58;;;;;;;2.17;0.70;;;34.30;1.00;;;;;;5114131;28;20441;-54
2022/05/20 13:25:25;;;;;;;1.10;0.70;;;34.40;1.00;;;;;;5117924;27;20464;-54
2022/05/20 13:27:52;;;;;;;1.40;0.67;;;34.80;1.00;;;;;;5093024;28;20434;-57
2022/05/20 13:30:22;;;;;;;1.23;0.70;;;34.60;1.00;;;;;;5094749;28;20932;-55
2022/05/20 13:32:49;;;;;;;1.50;0.60;;;34.60;1.00;;;;;;5093636;28;20729;-56
2022/05/20 13:35:17;;;;;;;1.60;0.70;;;34.70;1.00;;;;;;5121683;27;20986;-55
2022/05/20 13:37:47;;;;;;;0.90;0.70;;;35.00;1.00;;;;;;5132880;27;20896;-57
2022/05/20 13:40:23;;;;;;;0.80;0.60;;;34.80;1.00;;;;;;5109043;28;20487;-57
2022/05/20 13:42:53;;;;;;;1.87;0.80;;;34.90;1.00;;;;;;5111167;28;21037;-58
2022/05/20 13:45:22;;;;;;;1.70;0.60;;;35.20;1.00;;;;;;5112507;28;20456;-58
2022/05/20 13:50:34;;;;;;;1.33;0.70;;;35.00;1.00;;;;;;5123233;28;20717;-58
2022/05/20 13:53:01;;;;;;;1.37;0.60;;;34.70;1.00;;;;;;5115547;28;20543;-58
2022/05/20 13:55:35;;;;;;;0.80;0.50;;;34.80;1.00;;;;;;5111311;28;20535;-58
2022/05/20 13:58:02;;;;;;;3.30;0.80;;;34.80;1.00;;;;;;5116709;28;20440;-58
2022/05/20 14:00:33;;;;;;;1.40;0.60;;;34.20;1.00;;;;;;5119555;28;20473;-57
2022/05/20 14:03:13;;;;;;;2.13;0.53;;;34.00;1.00;;;;;;5119855;28;20464;-58
2022/05/20 14:05:46;;;;;;;2.03;0.80;;;34.10;1.00;;;;;;5127233;28;20451;-58
2022/05/20 14:08:19;;;;;;;0.80;0.70;;;34.40;1.00;;;;;;5121279;28;20535;-58